Time;durP1;ratioP1;P1;durP2;ratioP2;P2;SDS_P1;SDS_P2;PMS_P1;PMS_P2;Temp;Humidity;BMP_temperature;BMP_pressure;BME280_temperature;BME280_humidity;BME280_pressure;Samples;Min_cycle;Max_cycle;Signal;HPM_P1;HPM_P2
2023/04/08 00:02:02;;;;;;;;;;;;;;;;;;4985713;28;19968;-80
2023/04/08 00:04:48;;;;;;;;;;;;;;;;;;4992322;28;19926;-80
2023/04/08 00:07:35;;;;;;;;;;;;;;;;;;4991017;28;19921;-80
2023/04/08 00:10:21;;;;;;;;;;;;;;;;;;4988952;28;19918;-80
2023/04/08 00:13:08;;;;;;;;;;;;;;;;;;4998059;28;20288;-80
2023/04/08 00:15:54;;;;;;;;;;;;;;;;;;4990593;28;19936;-81
2023/04/08 00:18:41;;;;;;;;;;;;;;;;;;5002035;28;19924;-80
2023/04/08 00:21:28;;;;;;;;;;;;;;;;;;4996649;28;19932;-80
2023/04/08 00:24:14;;;;;;;;;;;;;;;;;;4999682;28;19922;-81
2023/04/08 00:27:01;;;;;;;;;;;;;;;;;;4998140;28;19926;-85
2023/04/08 00:29:48;;;;;;;;;;;;;;;;;;4991102;28;19952;-81
2023/04/08 00:32:35;;;;;;;;;;;;;;;;;;4993688;28;20373;-82
2023/04/08 00:35:21;;;;;;;;;;;;;;;;;;5001756;28;19917;-82
2023/04/08 00:38:08;;;;;;;;;;;;;;;;;;5003138;28;20329;-82
2023/04/08 00:40:54;;;;;;;;;;;;;;;;;;5004587;28;19917;-78
2023/04/08 00:43:41;;;;;;;;;;;;;;;;;;4994516;28;19928;-79
2023/04/08 00:46:27;;;;;;;;;;;;;;;;;;4993656;28;20420;-80
2023/04/08 00:49:14;;;;;;;;;;;;;;;;;;5003204;28;19917;-80
2023/04/08 00:52:01;;;;;;;;;;;;;;;;;;4992848;28;19917;-79
2023/04/08 00:54:47;;;;;;;;;;;;;;;;;;5000030;28;19921;-79
2023/04/08 00:57:34;;;;;;;;;;;;;;;;;;4998535;28;19918;-80
2023/04/08 01:00:20;;;;;;;;;;;;;;;;;;5001481;28;19921;-80
2023/04/08 01:03:07;;;;;;;;;;;;;;;;;;5001598;28;19925;-80
2023/04/08 01:05:53;;;;;;;;;;;;;;;;;;4987897;28;19936;-80
2023/04/08 01:08:40;;;;;;;;;;;;;;;;;;4991584;28;20385;-79
2023/04/08 01:11:26;;;;;;;;;;;;;;;;;;5004657;28;19928;-79
2023/04/08 01:14:13;;;;;;;;;;;;;;;;;;4989909;28;19915;-80
2023/04/08 01:16:59;;;;;;;;;;;;;;;;;;4986380;28;19929;-79
2023/04/08 01:19:46;;;;;;;;;;;;;;;;;;4992221;28;19918;-80
2023/04/08 01:22:33;;;;;;;;;;;;;;;;;;5003764;28;19913;-79
2023/04/08 01:25:19;;;;;;;;;;;;;;;;;;4998404;28;19926;-81
2023/04/08 01:28:06;;;;;;;;;;;;;;;;;;4994105;28;19918;-81
2023/04/08 01:30:52;;;;;;;;;;;;;;;;;;4990959;28;19930;-80
2023/04/08 01:33:39;;;;;;;;;;;;;;;;;;5002077;28;19932;-80
2023/04/08 01:36:25;;;;;;;;;;;;;;;;;;4994148;28;19922;-80
2023/04/08 01:39:12;;;;;;;;;;;;;;;;;;4990906;28;19924;-80
2023/04/08 01:41:58;;;;;;;;;;;;;;;;;;4999315;28;20011;-80
2023/04/08 01:44:45;;;;;;;;;;;;;;;;;;4983293;28;19925;-82
2023/04/08 01:47:31;;;;;;;;;;;;;;;;;;5002436;28;19924;-81
2023/04/08 01:50:18;;;;;;;;;;;;;;;;;;5002557;28;19929;-80
2023/04/08 01:53:04;;;;;;;;;;;;;;;;;;5002688;28;19921;-81
2023/04/08 01:55:51;;;;;;;;;;;;;;;;;;4978874;28;19929;-81
2023/04/08 01:58:38;;;;;;;;;;;;;;;;;;5000380;28;19928;-80
2023/04/08 02:01:24;;;;;;;;;;;;;;;;;;4999728;28;20462;-81
2023/04/08 02:04:11;;;;;;;;;;;;;;;;;;5004010;28;20300;-80
2023/04/08 02:06:57;;;;;;;;;;;;;;;;;;5000838;28;20251;-81
2023/04/08 02:09:44;;;;;;;;;;;;;;;;;;4992527;28;19918;-80
2023/04/08 02:12:30;;;;;;;;;;;;;;;;;;4990719;28;19928;-80
2023/04/08 02:15:17;;;;;;;;;;;;;;;;;;4985428;28;19936;-80
2023/04/08 02:18:06;;;;;;;;;;;;;;;;;;5004713;28;19918;-80
2023/04/08 02:20:53;;;;;;;;;;;;;;;;;;4994676;28;19944;-80
2023/04/08 02:23:39;;;;;;;;;;;;;;;;;;4999220;28;19917;-79
2023/04/08 02:26:26;;;;;;;;;;;;;;;;;;5005796;28;19926;-80
2023/04/08 02:29:12;;;;;;;;;;;;;;;;;;4997494;28;19921;-80
2023/04/08 02:31:59;;;;;;;;;;;;;;;;;;5010147;28;20466;-83
2023/04/08 02:34:45;;;;;;;;;;;;;;;;;;4991402;28;19922;-83
2023/04/08 02:37:32;;;;;;;;;;;;;;;;;;4985173;28;19920;-83
2023/04/08 02:40:18;;;;;;;;;;;;;;;;;;5004211;28;20332;-83
2023/04/08 02:43:05;;;;;;;;;;;;;;;;;;5004452;28;19917;-83
2023/04/08 02:55:08;;;;;;;;;;;;;;;;;;5000742;28;20316;-80
2023/04/08 02:57:55;;;;;;;;;;;;;;;;;;4991320;28;19918;-80
2023/04/08 03:00:41;;;;;;;;;;;;;;;;;;5004607;28;19918;-80
2023/04/08 03:03:29;;;;;;;;;;;;;;;;;;4992489;28;19980;-80
2023/04/08 03:06:15;;;;;;;;;;;;;;;;;;4996707;28;19934;-80
2023/04/08 03:09:01;;;;;;;;;;;;;;;;;;4983530;28;20293;-79
2023/04/08 03:11:51;;;;;;;;;;;;;;;;;;4995890;28;19925;-81
2023/04/08 03:14:38;;;;;;;;;;;;;;;;;;4997351;28;19933;-80
2023/04/08 03:17:24;;;;;;;;;;;;;;;;;;5001128;28;19921;-81
2023/04/08 03:20:11;;;;;;;;;;;;;;;;;;4996745;28;19921;-81
2023/04/08 03:22:57;;;;;;;;;;;;;;;;;;4998013;28;20412;-81
2023/04/08 03:25:44;;;;;;;;;;;;;;;;;;4997123;28;19933;-81
2023/04/08 03:28:31;;;;;;;;;;;;;;;;;;4998392;28;19918;-81
2023/04/08 03:31:20;;;;;;;;;;;;;;;;;;5001446;28;19925;-81
2023/04/08 03:34:06;;;;;;;;;;;;;;;;;;5003700;28;19924;-81
2023/04/08 03:36:52;;;;;;;;;;;;;;;;;;4993056;28;19920;-81
2023/04/08 03:39:39;;;;;;;;;;;;;;;;;;5000825;28;19921;-80
2023/04/08 03:42:26;;;;;;;;;;;;;;;;;;5004557;28;19924;-81
2023/04/08 03:45:12;;;;;;;;;;;;;;;;;;4997686;28;20377;-81
2023/04/08 03:47:59;;;;;;;;;;;;;;;;;;4994270;28;19925;-81
2023/04/08 03:50:45;;;;;;;;;;;;;;;;;;5002270;28;19922;-81
2023/04/08 03:53:32;;;;;;;;;;;;;;;;;;4991824;28;19929;-80
2023/04/08 03:56:18;;;;;;;;;;;;;;;;;;4998193;28;19929;-80
2023/04/08 03:59:04;;;;;;;;;;;;;;;;;;4998804;28;19921;-80
2023/04/08 04:01:52;;;;;;;;;;;;;;;;;;4995396;28;19989;-81
2023/04/08 04:04:38;;;;;;;;;;;;;;;;;;4999696;28;20446;-80
2023/04/08 04:07:25;;;;;;;;;;;;;;;;;;5001369;28;19913;-79
2023/04/08 04:10:11;;;;;;;;;;;;;;;;;;5006363;28;19925;-79
2023/04/08 04:12:58;;;;;;;;;;;;;;;;;;4997342;28;19917;-79
2023/04/08 04:15:44;;;;;;;;;;;;;;;;;;5006230;28;20389;-80
2023/04/08 04:18:31;;;;;;;;;;;;;;;;;;5006367;28;19923;-79
2023/04/08 04:21:18;;;;;;;;;;;;;;;;;;5006037;28;19920;-80
2023/04/08 04:24:04;;;;;;;;;;;;;;;;;;5011459;28;19922;-80
2023/04/08 04:26:51;;;;;;;;;;;;;;;;;;4989877;28;19936;-80
2023/04/08 04:29:37;;;;;;;;;;;;;;;;;;4998621;28;20416;-80
2023/04/08 04:32:24;;;;;;;;;;;;;;;;;;5007199;28;19917;-81
2023/04/08 04:35:10;;;;;;;;;;;;;;;;;;5007460;28;19925;-80
2023/04/08 04:37:56;;;;;;;;;;;;;;;;;;4990235;28;19914;-81
2023/04/08 04:40:43;;;;;;;;;;;;;;;;;;5002855;28;19922;-81
2023/04/08 04:43:30;;;;;;;;;;;;;;;;;;5002372;28;19921;-80
2023/04/08 04:46:16;;;;;;;;;;;;;;;;;;5012497;28;20378;-80
2023/04/08 04:49:02;;;;;;;;;;;;;;;;;;4996703;28;19920;-80
2023/04/08 04:51:49;;;;;;;;;;;;;;;;;;4998186;28;19922;-82
2023/04/08 04:54:35;;;;;;;;;;;;;;;;;;4992021;28;19917;-79
2023/04/08 04:57:22;;;;;;;;;;;;;;;;;;5007022;28;19928;-80
2023/04/08 05:00:09;;;;;;;;;;;;;;;;;;4995407;28;19948;-80
2023/04/08 05:02:55;;;;;;;;;;;;;;;;;;4992538;28;19917;-80
2023/04/08 05:05:42;;;;;;;;;;;;;;;;;;4995794;28;19936;-80
2023/04/08 05:08:28;;;;;;;;;;;;;;;;;;5003985;28;19917;-80
2023/04/08 05:11:17;;;;;;;;;;;;;;;;;;4989690;28;19956;-80
2023/04/08 05:14:03;;;;;;;;;;;;;;;;;;5006042;28;19922;-80
2023/04/08 05:16:50;;;;;;;;;;;;;;;;;;4996600;28;19934;-80
2023/04/08 05:19:36;;;;;;;;;;;;;;;;;;4997864;28;19933;-80
2023/04/08 05:22:23;;;;;;;;;;;;;;;;;;4994016;28;19917;-79
2023/04/08 05:25:09;;;;;;;;;;;;;;;;;;4999624;28;20402;-80
2023/04/08 05:27:56;;;;;;;;;;;;;;;;;;4997770;28;20318;-81
2023/04/08 05:30:42;;;;;;;;;;;;;;;;;;4995922;28;19918;-80
2023/04/08 05:33:29;;;;;;;;;;;;;;;;;;5006135;28;19922;-78
2023/04/08 05:36:15;;;;;;;;;;;;;;;;;;5003083;28;19925;-78
2023/04/08 05:39:02;;;;;;;;;;;;;;;;;;4999889;28;19922;-78
2023/04/08 05:41:48;;;;;;;;;;;;;;;;;;5003437;28;20005;-78
2023/04/08 05:44:35;;;;;;;;;;;;;;;;;;5001301;28;19918;-77
2023/04/08 05:47:21;;;;;;;;;;;;;;;;;;5002104;28;20044;-78
2023/04/08 05:50:08;;;;;;;;;;;;;;;;;;5006071;28;19923;-80
2023/04/08 05:52:54;;;;;;;;;;;;;;;;;;4992539;28;20349;-80
2023/04/08 05:55:41;;;;;;;;;;;;;;;;;;5001042;28;19920;-80
2023/04/08 05:58:27;;;;;;;;;;;;;;;;;;4997128;28;19922;-79
2023/04/08 06:01:14;;;;;;;;;;;;;;;;;;4990533;28;19973;-79
2023/04/08 06:04:01;;;;;;;;;;;;;;;;;;4994548;28;20650;-80
2023/04/08 06:06:47;;;;;;;;;;;;;;;;;;5005522;28;19921;-79
2023/04/08 06:09:34;;;;;;;;;;;;;;;;;;4999748;28;19943;-78
2023/04/08 06:12:20;;;;;;;;;;;;;;;;;;4997902;28;19918;-79
2023/04/08 06:15:06;;;;;;;;;;;;;;;;;;4998815;28;19921;-79
2023/04/08 06:17:53;;;;;;;;;;;;;;;;;;4986266;28;19921;-79
2023/04/08 06:20:39;;;;;;;;;;;;;;;;;;5001470;28;19928;-79
2023/04/08 06:23:26;;;;;;;;;;;;;;;;;;4986555;28;19918;-79
2023/04/08 06:26:12;;;;;;;;;;;;;;;;;;4999302;28;19929;-80
2023/04/08 06:29:00;;;;;;;;;;;;;;;;;;4999848;28;19996;-80
2023/04/08 06:31:47;;;;;;;;;;;;;;;;;;4994417;28;19930;-80
2023/04/08 06:34:33;;;;;;;;;;;;;;;;;;4998912;28;19918;-79
2023/04/08 06:37:20;;;;;;;;;;;;;;;;;;5004301;28;19914;-79
2023/04/08 06:40:06;;;;;;;;;;;;;;;;;;4997331;28;20228;-80
2023/04/08 06:42:53;;;;;;;;;;;;;;;;;;4990981;28;20594;-80
2023/04/08 06:45:41;;;;;;;;;;;;;;;;;;4999769;28;20373;-79
2023/04/08 06:48:29;;;;;;;;;;;;;;;;;;5002981;28;19940;-79
2023/04/08 06:51:15;;;;;;;;;;;;;;;;;;4991626;28;20499;-80
2023/04/08 06:54:02;;;;;;;;;;;;;;;;;;5000714;28;19919;-79
2023/04/08 06:56:48;;;;;;;;;;;;;;;;;;4991168;28;19926;-80
2023/04/08 06:59:35;;;;;;;;;;;;;;;;;;4997615;28;19929;-79
2023/04/08 07:02:22;;;;;;;;;;;;;;;;;;4998434;28;19921;-78
2023/04/08 07:05:08;;;;;;;;;;;;;;;;;;4995959;28;20463;-78
2023/04/08 07:07:55;;;;;;;;;;;;;;;;;;4988907;28;20350;-79
2023/04/08 07:10:41;;;;;;;;;;;;;;;;;;4998927;28;19928;-82
2023/04/08 07:13:28;;;;;;;;;;;;;;;;;;4997765;28;19918;-79
2023/04/08 07:16:14;;;;;;;;;;;;;;;;;;4989674;28;19953;-79
2023/04/08 07:19:01;;;;;;;;;;;;;;;;;;4996582;28;19921;-81
2023/04/08 07:21:48;;;;;;;;;;;;;;;;;;4987373;28;19942;-81
2023/04/08 07:24:34;;;;;;;;;;;;;;;;;;5001525;28;19941;-81
2023/04/08 07:27:21;;;;;;;;;;;;;;;;;;4995751;28;19941;-80
2023/04/08 07:30:07;;;;;;;;;;;;;;;;;;4992401;28;19936;-82
2023/04/08 07:32:54;;;;;;;;;;;;;;;;;;4983579;28;20374;-82
2023/04/08 07:35:41;;;;;;;;;;;;;;;;;;4991203;28;19925;-82
2023/04/08 07:38:27;;;;;;;;;;;;;;;;;;4997383;28;19922;-81
2023/04/08 07:41:14;;;;;;;;;;;;;;;;;;4998130;28;19924;-82
2023/04/08 07:44:01;;;;;;;;;;;;;;;;;;4997099;28;19956;-82
2023/04/08 07:46:50;;;;;;;;;;;;;;;;;;4998563;28;20556;-83
2023/04/08 07:49:37;;;;;;;;;;;;;;;;;;4992077;28;19923;-80
2023/04/08 07:52:25;;;;;;;;;;;;;;;;;;5001429;28;19939;-82
2023/04/08 07:55:11;;;;;;;;;;;;;;;;;;4989157;28;19914;-81
2023/04/08 07:57:58;;;;;;;;;;;;;;;;;;4995527;28;20024;-82
2023/04/08 08:00:44;;;;;;;;;;;;;;;;;;4991359;28;20286;-82
2023/04/08 08:03:31;;;;;;;;;;;;;;;;;;5002351;28;20367;-79
2023/04/08 08:06:17;;;;;;;;;;;;;;;;;;5000079;28;19929;-81
2023/04/08 08:09:04;;;;;;;;;;;;;;;;;;4994028;28;19918;-82
2023/04/08 08:11:50;;;;;;;;;;;;;;;;;;4997088;28;19921;-81
2023/04/08 08:14:37;;;;;;;;;;;;;;;;;;4985203;28;20695;-82
2023/04/08 08:17:23;;;;;;;;;;;;;;;;;;4992709;28;19929;-81
2023/04/08 08:20:10;;;;;;;;;;;;;;;;;;4992002;28;19918;-81
2023/04/08 08:22:56;;;;;;;;;;;;;;;;;;4992359;28;19940;-81
2023/04/08 08:25:43;;;;;;;;;;;;;;;;;;5000395;28;19924;-82
2023/04/08 08:28:30;;;;;;;;;;;;;;;;;;4993997;28;20384;-81
2023/04/08 08:31:16;;;;;;;;;;;;;;;;;;4991608;28;20400;-82
2023/04/08 08:34:06;;;;;;;;;;;;;;;;;;4998270;28;19914;-82
2023/04/08 08:36:52;;;;;;;;;;;;;;;;;;5001785;28;19922;-83
2023/04/08 08:39:39;;;;;;;;;;;;;;;;;;4987623;28;20286;-82
2023/04/08 08:42:25;;;;;;;;;;;;;;;;;;4994160;28;19992;-81
2023/04/08 08:45:12;;;;;;;;;;;;;;;;;;5001591;28;19922;-81
2023/04/08 08:47:58;;;;;;;;;;;;;;;;;;4997911;28;19948;-82
2023/04/08 08:50:45;;;;;;;;;;;;;;;;;;4999852;28;19918;-82
2023/04/08 08:53:31;;;;;;;;;;;;;;;;;;4996180;28;19922;-81
2023/04/08 08:56:18;;;;;;;;;;;;;;;;;;4999033;28;20304;-82
2023/04/08 08:59:04;;;;;;;;;;;;;;;;;;4996117;28;19917;-81
2023/04/08 09:01:51;;;;;;;;;;;;;;;;;;5002138;28;19921;-83
2023/04/08 09:04:38;;;;;;;;;;;;;;;;;;4997440;28;19932;-81
2023/04/08 09:07:27;;;;;;;;;;;;;;;;;;4999118;28;19936;-81
2023/04/08 09:10:13;;;;;;;;;;;;;;;;;;4996724;28;20396;-81
2023/04/08 09:13:01;;;;;;;;;;;;;;;;;;4988910;28;19925;-80
2023/04/08 09:15:51;;;;;;;;;;;;;;;;;;4998301;28;19922;-80
2023/04/08 09:18:37;;;;;;;;;;;;;;;;;;4970470;28;19953;-81
2023/04/08 09:21:26;;;;;;;;;;;;;;;;;;4993347;28;19918;-81
2023/04/08 09:24:12;;;;;;;;;;;;;;;;;;4998687;28;19921;-81
2023/04/08 09:26:59;;;;;;;;;;;;;;;;;;5002098;28;20305;-77
2023/04/08 09:29:46;;;;;;;;;;;;;;;;;;4998278;28;19936;-78
2023/04/08 09:32:32;;;;;;;;;;;;;;;;;;5002230;28;19918;-83
2023/04/08 09:35:19;;;;;;;;;;;;;;;;;;5005920;28;20288;-85
2023/04/08 09:38:05;;;;;;;;;;;;;;;;;;5000683;28;20301;-84
2023/04/08 09:40:52;;;;;;;;;;;;;;;;;;5002068;28;19922;-83
2023/04/08 09:43:39;;;;;;;;;;;;;;;;;;4998773;28;19973;-84
2023/04/08 09:46:25;;;;;;;;;;;;;;;;;;4996737;28;19930;-83
2023/04/08 09:49:12;;;;;;;;;;;;;;;;;;5002333;28;20305;-84
2023/04/08 09:51:59;;;;;;;;;;;;;;;;;;5000178;28;19928;-84
2023/04/08 09:54:46;;;;;;;;;;;;;;;;;;4992734;28;19928;-85
2023/04/08 09:57:32;;;;;;;;;;;;;;;;;;5001598;28;19927;-84
2023/04/08 10:00:19;;;;;;;;;;;;;;;;;;4999361;28;20416;-76
2023/04/08 10:03:05;;;;;;;;;;;;;;;;;;5000125;28;19929;-81
2023/04/08 10:05:52;;;;;;;;;;;;;;;;;;5001778;28;19936;-81
2023/04/08 10:08:38;;;;;;;;;;;;;;;;;;4995562;28;20706;-83
2023/04/08 10:11:25;;;;;;;;;;;;;;;;;;4999371;28;19922;-83
2023/04/08 10:14:11;;;;;;;;;;;;;;;;;;5002917;28;19927;-84
2023/04/08 10:16:58;;;;;;;;;;;;;;;;;;4994251;28;19929;-84
2023/04/08 10:19:44;;;;;;;;;;;;;;;;;;5003473;28;19921;-83
2023/04/08 10:22:30;;;;;;;;;;;;;;;;;;4986141;28;19972;-83
2023/04/08 10:25:17;;;;;;;;;;;;;;;;;;5003700;28;19924;-84
2023/04/08 10:28:03;;;;;;;;;;;;;;;;;;5008527;28;20703;-84
2023/04/08 10:30:50;;;;;;;;;;;;;;;;;;4994482;28;20561;-84
2023/04/08 10:33:36;;;;;;;;;;;;;;;;;;5003042;28;19928;-83
2023/04/08 10:36:23;;;;;;;;;;;;;;;;;;4992687;28;19924;-85
2023/04/08 10:39:09;;;;;;;;;;;;;;;;;;4995999;28;20273;-84
2023/04/08 10:41:56;;;;;;;;;;;;;;;;;;5007418;28;19933;-84
2023/04/08 10:44:42;;;;;;;;;;;;;;;;;;4991928;28;19921;-84
2023/04/08 10:47:29;;;;;;;;;;;;;;;;;;5001557;28;19925;-84
2023/04/08 10:50:15;;;;;;;;;;;;;;;;;;4984812;28;19948;-84
2023/04/08 10:53:02;;;;;;;;;;;;;;;;;;4993731;28;19925;-85
2023/04/08 10:55:48;;;;;;;;;;;;;;;;;;5005712;28;20108;-85
2023/04/08 10:58:35;;;;;;;;;;;;;;;;;;4993675;28;19929;-83
2023/04/08 11:01:22;;;;;;;;;;;;;;;;;;5000409;28;19935;-84
2023/04/08 11:04:08;;;;;;;;;;;;;;;;;;5004809;28;19924;-85
2023/04/08 11:06:55;;;;;;;;;;;;;;;;;;4986392;28;19925;-85
2023/04/08 11:09:42;;;;;;;;;;;;;;;;;;4985712;28;20483;-84
2023/04/08 11:12:28;;;;;;;;;;;;;;;;;;5010579;28;19918;-85
2023/04/08 11:15:15;;;;;;;;;;;;;;;;;;4996824;28;19929;-85
2023/04/08 11:18:02;;;;;;;;;;;;;;;;;;5006859;28;19926;-84
2023/04/08 11:20:48;;;;;;;;;;;;;;;;;;4989709;28;19937;-84
2023/04/08 11:23:34;;;;;;;;;;;;;;;;;;5001892;28;19921;-84
2023/04/08 11:26:21;;;;;;;;;;;;;;;;;;4987337;28;19936;-84
2023/04/08 11:29:13;;;;;;;;;;;;;;;;;;4994017;28;24253;-84
2023/04/08 11:31:59;;;;;;;;;;;;;;;;;;4987241;28;19913;-85
2023/04/08 11:34:46;;;;;;;;;;;;;;;;;;4991783;28;20403;-85
2023/04/08 11:37:33;;;;;;;;;;;;;;;;;;5003650;28;19928;-84
2023/04/08 11:40:19;;;;;;;;;;;;;;;;;;4993753;28;19914;-84
2023/04/08 11:43:06;;;;;;;;;;;;;;;;;;4994422;28;19928;-84
2023/04/08 11:45:52;;;;;;;;;;;;;;;;;;5004320;28;20564;-84
2023/04/08 11:48:39;;;;;;;;;;;;;;;;;;4988320;28;19925;-83
2023/04/08 11:51:26;;;;;;;;;;;;;;;;;;4996662;28;19933;-84
2023/04/08 11:54:13;;;;;;;;;;;;;;;;;;4997726;28;19921;-84
2023/04/08 11:56:59;;;;;;;;;;;;;;;;;;4995615;28;20365;-84
2023/04/08 11:59:48;;;;;;;;;;;;;;;;;;4993075;28;19929;-85
2023/04/08 12:02:37;;;;;;;;;;;;;;;;;;4996052;28;19929;-83
2023/04/08 12:05:24;;;;;;;;;;;;;;;;;;5004941;28;19925;-84
2023/04/08 12:08:10;;;;;;;;;;;;;;;;;;4991902;28;19985;-84
2023/04/08 12:10:57;;;;;;;;;;;;;;;;;;5000992;28;20362;-85
2023/04/08 12:13:43;;;;;;;;;;;;;;;;;;5006840;28;19928;-84
2023/04/08 12:16:30;;;;;;;;;;;;;;;;;;4992545;28;19929;-82
2023/04/08 12:19:16;;;;;;;;;;;;;;;;;;4989440;28;19918;-84
2023/04/08 12:22:03;;;;;;;;;;;;;;;;;;4989862;28;19935;-84
2023/04/08 12:24:49;;;;;;;;;;;;;;;;;;4998331;28;19922;-84
2023/04/08 12:27:36;;;;;;;;;;;;;;;;;;4990224;28;19933;-84
2023/04/08 12:30:22;;;;;;;;;;;;;;;;;;5005425;28;19953;-84
2023/04/08 12:33:09;;;;;;;;;;;;;;;;;;4994807;28;19917;-84
2023/04/08 12:35:57;;;;;;;;;;;;;;;;;;4975935;28;20008;-84
2023/04/08 12:38:44;;;;;;;;;;;;;;;;;;5006003;28;19922;-84
2023/04/08 12:41:31;;;;;;;;;;;;;;;;;;4994059;28;19937;-84
2023/04/08 12:44:18;;;;;;;;;;;;;;;;;;5006271;28;20383;-85
2023/04/08 12:47:04;;;;;;;;;;;;;;;;;;4996710;28;20297;-84
2023/04/08 12:49:51;;;;;;;;;;;;;;;;;;4999600;28;19921;-84
2023/04/08 12:52:37;;;;;;;;;;;;;;;;;;4993244;28;20374;-84
2023/04/08 12:55:24;;;;;;;;;;;;;;;;;;4985468;28;19921;-83
2023/04/08 12:58:15;;;;;;;;;;;;;;;;;;4997705;28;19925;-84
2023/04/08 13:01:02;;;;;;;;;;;;;;;;;;4996053;28;19918;-85
2023/04/08 13:03:48;;;;;;;;;;;;;;;;;;5002203;28;19921;-85
2023/04/08 13:06:35;;;;;;;;;;;;;;;;;;4995958;28;19929;-82
2023/04/08 13:09:21;;;;;;;;;;;;;;;;;;4994995;28;19929;-84
2023/04/08 13:12:08;;;;;;;;;;;;;;;;;;4992048;28;19924;-84
2023/04/08 13:14:55;;;;;;;;;;;;;;;;;;5006539;28;19921;-83
2023/04/08 13:17:41;;;;;;;;;;;;;;;;;;5007281;28;19929;-84
2023/04/08 13:20:27;;;;;;;;;;;;;;;;;;4994256;28;19941;-84
2023/04/08 13:23:16;;;;;;;;;;;;;;;;;;5003558;28;20328;-84
2023/04/08 13:26:03;;;;;;;;;;;;;;;;;;4995436;28;19925;-84
2023/04/08 13:28:51;;;;;;;;;;;;;;;;;;5002428;28;19928;-84
2023/04/08 13:31:38;;;;;;;;;;;;;;;;;;5005810;28;19914;-84
2023/04/08 13:34:24;;;;;;;;;;;;;;;;;;5006598;28;19918;-83
2023/04/08 13:37:11;;;;;;;;;;;;;;;;;;5005196;28;19921;-83
2023/04/08 13:39:57;;;;;;;;;;;;;;;;;;4999218;28;19948;-84
2023/04/08 13:42:44;;;;;;;;;;;;;;;;;;5004283;28;19924;-83
2023/04/08 13:45:30;;;;;;;;;;;;;;;;;;4992819;28;20411;-83
2023/04/08 13:48:17;;;;;;;;;;;;;;;;;;4998521;28;19930;-83
2023/04/08 13:51:04;;;;;;;;;;;;;;;;;;5003158;28;20534;-84
2023/04/08 13:53:50;;;;;;;;;;;;;;;;;;5004092;28;19926;-83
2023/04/08 13:56:37;;;;;;;;;;;;;;;;;;4981960;28;20493;-84
2023/04/08 13:59:23;;;;;;;;;;;;;;;;;;4998884;28;19917;-83
2023/04/08 14:02:11;;;;;;;;;;;;;;;;;;4996720;28;20323;-83
2023/04/08 14:04:58;;;;;;;;;;;;;;;;;;4989198;28;19925;-84
2023/04/08 14:07:44;;;;;;;;;;;;;;;;;;4994647;28;19932;-84
2023/04/08 14:10:31;;;;;;;;;;;;;;;;;;4998064;28;19932;-86
2023/04/08 14:13:17;;;;;;;;;;;;;;;;;;5009582;28;20289;-83
2023/04/08 14:16:03;;;;;;;;;;;;;;;;;;4993946;28;19941;-84
2023/04/08 14:18:52;;;;;;;;;;;;;;;;;;5003853;28;20301;-83
2023/04/08 14:21:39;;;;;;;;;;;;;;;;;;4996831;28;19917;-83
2023/04/08 14:24:25;;;;;;;;;;;;;;;;;;5005869;28;19927;-83
2023/04/08 14:27:12;;;;;;;;;;;;;;;;;;5005790;28;19922;-84
2023/04/08 14:29:58;;;;;;;;;;;;;;;;;;5006184;28;20452;-85
2023/04/08 14:32:47;;;;;;;;;;;;;;;;;;5002030;28;19917;-85
2023/04/08 14:35:34;;;;;;;;;;;;;;;;;;4998062;28;19922;-83
2023/04/08 14:38:20;;;;;;;;;;;;;;;;;;4997853;28;19921;-85
2023/04/08 14:41:07;;;;;;;;;;;;;;;;;;5003589;28;19936;-84
2023/04/08 14:43:53;;;;;;;;;;;;;;;;;;4996069;28;19948;-84
2023/04/08 14:46:40;;;;;;;;;;;;;;;;;;5002746;28;19956;-82
2023/04/08 14:49:26;;;;;;;;;;;;;;;;;;5003865;28;19921;-83
2023/04/08 14:52:13;;;;;;;;;;;;;;;;;;4999901;28;19918;-83
2023/04/08 14:54:59;;;;;;;;;;;;;;;;;;4997743;28;19928;-82
2023/04/08 14:57:46;;;;;;;;;;;;;;;;;;4987459;28;19918;-83
2023/04/08 15:00:32;;;;;;;;;;;;;;;;;;4991426;28;19921;-82
2023/04/08 15:03:19;;;;;;;;;;;;;;;;;;4992366;28;20398;-82
2023/04/08 15:06:06;;;;;;;;;;;;;;;;;;4992701;28;19925;-83
2023/04/08 15:08:52;;;;;;;;;;;;;;;;;;4988166;28;19944;-83
2023/04/08 15:11:39;;;;;;;;;;;;;;;;;;4995790;28;19922;-83
2023/04/08 15:14:25;;;;;;;;;;;;;;;;;;5003844;28;19921;-84
2023/04/08 15:17:12;;;;;;;;;;;;;;;;;;5002817;28;19933;-82
2023/04/08 15:19:58;;;;;;;;;;;;;;;;;;4995507;28;19936;-82
2023/04/08 15:22:45;;;;;;;;;;;;;;;;;;4999930;28;19945;-83
2023/04/08 15:25:32;;;;;;;;;;;;;;;;;;4999531;28;19921;-82
2023/04/08 15:28:18;;;;;;;;;;;;;;;;;;5001355;28;20381;-83
2023/04/08 15:31:05;;;;;;;;;;;;;;;;;;5000813;28;19922;-83
2023/04/08 15:33:51;;;;;;;;;;;;;;;;;;4999804;28;19925;-84
2023/04/08 15:36:38;;;;;;;;;;;;;;;;;;5001504;28;19925;-84
2023/04/08 15:39:25;;;;;;;;;;;;;;;;;;5000589;28;19956;-83
2023/04/08 15:42:11;;;;;;;;;;;;;;;;;;4997203;28;19929;-83
2023/04/08 15:44:58;;;;;;;;;;;;;;;;;;4995992;28;19918;-84
2023/04/08 15:47:44;;;;;;;;;;;;;;;;;;5001431;28;19925;-84
2023/04/08 15:50:30;;;;;;;;;;;;;;;;;;5001765;28;19917;-83
2023/04/08 15:53:17;;;;;;;;;;;;;;;;;;5002030;28;19917;-83
2023/04/08 15:56:03;;;;;;;;;;;;;;;;;;5001831;28;19917;-84
2023/04/08 15:58:50;;;;;;;;;;;;;;;;;;5002129;28;20071;-83
2023/04/08 16:01:37;;;;;;;;;;;;;;;;;;4991698;28;19924;-84
2023/04/08 16:04:26;;;;;;;;;;;;;;;;;;5000382;28;19922;-84
2023/04/08 16:07:13;;;;;;;;;;;;;;;;;;4991081;28;19933;-86
2023/04/08 16:09:59;;;;;;;;;;;;;;;;;;5002566;28;19918;-83
2023/04/08 16:12:46;;;;;;;;;;;;;;;;;;5002363;28;19929;-82
2023/04/08 16:15:35;;;;;;;;;;;;;;;;;;5004867;28;20652;-86
2023/04/08 16:18:22;;;;;;;;;;;;;;;;;;5004569;28;19917;-89
2023/04/08 16:21:09;;;;;;;;;;;;;;;;;;5004979;28;20408;-86
2023/04/08 16:23:56;;;;;;;;;;;;;;;;;;4997497;28;20294;-86
2023/04/08 16:26:42;;;;;;;;;;;;;;;;;;4996910;28;19929;-87
2023/04/08 16:29:29;;;;;;;;;;;;;;;;;;5005438;28;19917;-82
2023/04/08 16:32:16;;;;;;;;;;;;;;;;;;4993734;28;19917;-82
2023/04/08 16:35:02;;;;;;;;;;;;;;;;;;4991815;28;20402;-86
2023/04/08 16:37:49;;;;;;;;;;;;;;;;;;4999198;28;19928;-83
2023/04/08 16:40:35;;;;;;;;;;;;;;;;;;5001393;28;19945;-85
2023/04/08 16:43:23;;;;;;;;;;;;;;;;;;4999555;28;19928;-84
2023/04/08 16:46:10;;;;;;;;;;;;;;;;;;4998151;28;19931;-89
2023/04/08 16:48:56;;;;;;;;;;;;;;;;;;5000180;28;19925;-85
2023/04/08 16:51:43;;;;;;;;;;;;;;;;;;5002052;28;19922;-90
2023/04/08 16:54:30;;;;;;;;;;;;;;;;;;5001219;28;19921;-87
2023/04/08 16:57:17;;;;;;;;;;;;;;;;;;4998518;28;19924;-86
2023/04/08 17:00:03;;;;;;;;;;;;;;;;;;4998159;28;20628;-84
2023/04/08 17:02:51;;;;;;;;;;;;;;;;;;5003708;28;19929;-83
2023/04/08 17:05:38;;;;;;;;;;;;;;;;;;4980676;28;19925;-88
2023/04/08 17:08:25;;;;;;;;;;;;;;;;;;4994960;28;19926;-86
2023/04/08 17:11:11;;;;;;;;;;;;;;;;;;5004145;28;19921;-83
2023/04/08 17:13:58;;;;;;;;;;;;;;;;;;5003803;28;19944;-87
2023/04/08 17:16:44;;;;;;;;;;;;;;;;;;5002739;28;19936;-85
2023/04/08 17:19:31;;;;;;;;;;;;;;;;;;4997060;28;20399;-87
2023/04/08 17:22:17;;;;;;;;;;;;;;;;;;5000894;28;20483;-88
2023/04/08 17:25:04;;;;;;;;;;;;;;;;;;5003810;28;19917;-87
2023/04/08 17:27:51;;;;;;;;;;;;;;;;;;4994545;28;19936;-85
2023/04/08 17:30:38;;;;;;;;;;;;;;;;;;4991009;28;19922;-83
2023/04/08 17:33:25;;;;;;;;;;;;;;;;;;5005022;28;19956;-88
2023/04/08 17:36:12;;;;;;;;;;;;;;;;;;5004692;28;19921;-82
2023/04/08 17:38:58;;;;;;;;;;;;;;;;;;4997948;28;19921;-84
2023/04/08 17:41:45;;;;;;;;;;;;;;;;;;5003960;28;19928;-82
2023/04/08 17:44:31;;;;;;;;;;;;;;;;;;4998701;28;19948;-81
2023/04/08 17:47:19;;;;;;;;;;;;;;;;;;4996316;28;19933;-82
2023/04/08 17:50:06;;;;;;;;;;;;;;;;;;5003027;28;19921;-82
2023/04/08 17:52:52;;;;;;;;;;;;;;;;;;4967637;28;19922;-82
2023/04/08 17:55:39;;;;;;;;;;;;;;;;;;5000907;28;19933;-85
2023/04/08 17:58:26;;;;;;;;;;;;;;;;;;4988513;28;19925;-83
2023/04/08 18:01:12;;;;;;;;;;;;;;;;;;4999552;28;19925;-85
2023/04/08 18:03:58;;;;;;;;;;;;;;;;;;4988991;28;19921;-83
2023/04/08 18:06:45;;;;;;;;;;;;;;;;;;4996164;28;19927;-82
2023/04/08 18:09:31;;;;;;;;;;;;;;;;;;5000633;28;19928;-85
2023/04/08 18:12:18;;;;;;;;;;;;;;;;;;5001834;28;19940;-82
2023/04/08 18:15:05;;;;;;;;;;;;;;;;;;4995982;28;19929;-81
2023/04/08 18:17:52;;;;;;;;;;;;;;;;;;4996908;28;19928;-82
2023/04/08 18:20:38;;;;;;;;;;;;;;;;;;4997484;28;19918;-80
2023/04/08 18:23:25;;;;;;;;;;;;;;;;;;4994688;28;19921;-82
2023/04/08 18:26:11;;;;;;;;;;;;;;;;;;4994894;28;20396;-85
2023/04/08 18:28:58;;;;;;;;;;;;;;;;;;4997634;28;19937;-81
2023/04/08 18:31:44;;;;;;;;;;;;;;;;;;4999283;28;19922;-86
2023/04/08 18:34:31;;;;;;;;;;;;;;;;;;4991646;28;20526;-83
2023/04/08 18:37:18;;;;;;;;;;;;;;;;;;4995093;28;19922;-82
2023/04/08 18:40:06;;;;;;;;;;;;;;;;;;4992412;28;19925;-83
2023/04/08 18:42:52;;;;;;;;;;;;;;;;;;4994166;28;19933;-82
2023/04/08 18:45:39;;;;;;;;;;;;;;;;;;4996223;28;20298;-81
2023/04/08 18:48:26;;;;;;;;;;;;;;;;;;5000414;28;19925;-84
2023/04/08 18:51:13;;;;;;;;;;;;;;;;;;4994408;28;19922;-82
2023/04/08 18:53:59;;;;;;;;;;;;;;;;;;4996310;28;19922;-86
2023/04/08 18:56:45;;;;;;;;;;;;;;;;;;4994411;28;20449;-81
2023/04/08 18:59:32;;;;;;;;;;;;;;;;;;4994315;28;19932;-88
2023/04/08 19:02:18;;;;;;;;;;;;;;;;;;4996741;28;19928;-83
2023/04/08 19:05:06;;;;;;;;;;;;;;;;;;4997036;28;19914;-86
2023/04/08 19:07:52;;;;;;;;;;;;;;;;;;4998591;28;20380;-82